createdAt,value
2023-01-19T00:00:31.863Z,22.15
2023-01-19T00:02:58.846Z,21.17
2023-01-19T00:05:25.658Z,19.88
2023-01-19T00:07:52.547Z,20.90
2023-01-19T00:10:19.383Z,21.30
2023-01-19T00:12:46.280Z,24.30
2023-01-19T00:15:13.753Z,21.23
2023-01-19T00:17:41.210Z,18.48
2023-01-19T00:20:09.782Z,17.90
2023-01-19T00:22:36.609Z,19.23
2023-01-19T00:25:03.847Z,21.02
2023-01-19T00:27:35.007Z,18.88
2023-01-19T00:30:02.401Z,19.95
2023-01-19T00:32:29.220Z,20.27
2023-01-19T00:34:56.029Z,22.13
2023-01-19T00:37:22.868Z,20.35
2023-01-19T00:39:49.648Z,23.10
2023-01-19T00:42:34.734Z,22.02
2023-01-19T00:45:01.538Z,27.73
2023-01-19T00:47:28.368Z,21.73
2023-01-19T00:49:55.305Z,22.38
2023-01-19T00:52:22.109Z,21.90
2023-01-19T00:54:48.931Z,22.20
2023-01-19T00:57:16.327Z,21.48
2023-01-19T00:59:43.414Z,22.15
2023-01-19T01:02:11.719Z,20.95
2023-01-19T01:04:38.666Z,20.48
2023-01-19T01:07:05.463Z,21.95
2023-01-19T01:09:32.316Z,25.98
2023-01-19T01:11:59.122Z,25.02
2023-01-19T01:14:26.756Z,23.75
2023-01-19T01:16:53.681Z,19.33
2023-01-19T01:19:21.492Z,22.40
2023-01-19T01:21:48.345Z,23.80
2023-01-19T01:24:15.165Z,26.40
2023-01-19T01:26:41.979Z,26.42
2023-01-19T01:29:08.854Z,21.30
2023-01-19T01:31:35.685Z,21.20
2023-01-19T01:34:02.586Z,21.60
2023-01-19T01:36:32.245Z,21.17
2023-01-19T01:39:00.134Z,24.88
2023-01-19T01:41:27.646Z,23.73
2023-01-19T01:43:58.544Z,24.40
2023-01-19T01:46:26.697Z,23.50
2023-01-19T01:49:06.245Z,22.42
2023-01-19T01:51:44.408Z,22.58
2023-01-19T01:54:18.172Z,25.10
2023-01-19T01:56:49.502Z,21.63
2023-01-19T01:59:39.535Z,24.67
2023-01-19T02:02:45.889Z,24.45
2023-01-19T02:05:16.185Z,22.60
2023-01-19T02:08:04.409Z,21.75
2023-01-19T02:10:50.062Z,20.80
2023-01-19T02:13:22.717Z,23.10
2023-01-19T02:15:54.388Z,22.80
2023-01-19T02:18:24.247Z,24.23
2023-01-19T02:20:56.103Z,21.70
2023-01-19T02:23:41.244Z,22.23
2023-01-19T02:26:09.718Z,23.13
2023-01-19T02:28:39.061Z,23.10
2023-01-19T02:31:06.446Z,19.85
2023-01-19T02:33:33.345Z,17.67
2023-01-19T02:36:00.349Z,21.15
2023-01-19T02:38:27.670Z,17.63
2023-01-19T02:40:58.208Z,20.80
2023-01-19T02:43:25.145Z,19.20
2023-01-19T02:45:51.991Z,18.00
2023-01-19T02:48:19.280Z,18.40
2023-01-19T02:50:49.308Z,19.77
2023-01-19T02:54:00.847Z,20.25
2023-01-19T02:56:43.836Z,18.20
2023-01-19T02:59:47.891Z,20.05
2023-01-19T03:02:29.655Z,16.95
2023-01-19T03:05:14.006Z,18.70
2023-01-19T03:07:52.767Z,21.80
2023-01-19T03:10:41.115Z,15.65
2023-01-19T03:13:19.183Z,17.33
2023-01-19T03:15:49.006Z,17.65
2023-01-19T03:18:18.905Z,18.83
2023-01-19T03:20:45.724Z,19.33
2023-01-19T03:23:13.133Z,23.05
2023-01-19T03:25:43.284Z,16.88
2023-01-19T03:28:10.123Z,19.25
2023-01-19T03:30:42.318Z,18.40
2023-01-19T03:33:13.216Z,20.35
2023-01-19T03:35:41.967Z,19.52
2023-01-19T03:38:12.228Z,20.73
2023-01-19T03:40:39.071Z,17.38
2023-01-19T03:43:05.868Z,18.52
2023-01-19T03:45:33.581Z,18.92
2023-01-19T03:48:00.408Z,15.27
2023-01-19T03:50:28.586Z,20.02
2023-01-19T03:53:11.327Z,18.63
2023-01-19T03:55:39.305Z,16.95
2023-01-19T03:58:06.204Z,16.13
2023-01-19T04:00:33.307Z,15.85
2023-01-19T04:03:00.860Z,18.63
2023-01-19T04:05:27.884Z,16.33
2023-01-19T04:07:55.007Z,17.03
2023-01-19T04:10:22.005Z,17.80
2023-01-19T04:12:48.828Z,14.77
2023-01-19T04:15:15.645Z,17.00
2023-01-19T04:17:42.456Z,15.95
2023-01-19T04:20:09.864Z,19.30
2023-01-19T04:22:36.692Z,15.20
2023-01-19T04:25:03.627Z,15.00
2023-01-19T04:27:30.408Z,14.60
2023-01-19T04:29:57.184Z,14.07
2023-01-19T04:32:24.111Z,14.73
2023-01-19T04:34:50.940Z,13.68
2023-01-19T04:37:17.953Z,13.93
2023-01-19T04:39:44.745Z,15.60
2023-01-19T04:42:11.533Z,13.23
2023-01-19T04:44:38.325Z,14.70
2023-01-19T04:47:05.225Z,17.02
2023-01-19T04:49:32.113Z,16.90
2023-01-19T04:51:59.626Z,14.15
2023-01-19T04:54:27.703Z,12.80
2023-01-19T04:56:54.531Z,14.20
2023-01-19T04:59:21.626Z,13.52
2023-01-19T05:01:48.444Z,15.73
2023-01-19T05:04:15.545Z,12.70
2023-01-19T05:06:42.438Z,12.52
2023-01-19T05:09:09.262Z,14.10
2023-01-19T05:11:36.347Z,13.15
2023-01-19T05:14:03.130Z,12.60
2023-01-19T05:16:29.988Z,12.07
2023-01-19T05:18:56.907Z,15.18
2023-01-19T05:21:23.805Z,15.85
2023-01-19T05:23:50.614Z,13.52
2023-01-19T05:26:17.387Z,14.50
2023-01-19T05:28:44.205Z,12.35
2023-01-19T05:31:11.069Z,14.65
2023-01-19T05:33:37.950Z,13.55
2023-01-19T05:36:04.927Z,13.57
2023-01-19T05:38:35.757Z,10.38
2023-01-19T05:41:02.974Z,11.93
2023-01-19T05:43:29.760Z,17.05
2023-01-19T05:45:56.786Z,12.43
2023-01-19T05:48:23.665Z,13.30
2023-01-19T05:50:51.349Z,14.50
2023-01-19T05:53:18.132Z,16.02
2023-01-19T05:55:45.040Z,12.45
2023-01-19T05:58:11.884Z,14.02
2023-01-19T06:00:38.654Z,15.50
2023-01-19T06:03:06.714Z,12.60
2023-01-19T06:05:34.113Z,14.10
2023-01-19T06:08:01.454Z,14.32
2023-01-19T06:10:28.288Z,14.52
2023-01-19T06:12:55.090Z,15.77
2023-01-19T06:15:23.000Z,12.38
2023-01-19T06:17:49.803Z,13.23
2023-01-19T06:20:16.973Z,13.65
2023-01-19T06:22:43.871Z,15.18
2023-01-19T06:25:10.749Z,14.52
2023-01-19T06:27:37.669Z,15.45
2023-01-19T06:30:06.576Z,15.60
2023-01-19T06:32:33.406Z,14.80
2023-01-19T06:35:00.359Z,13.15
2023-01-19T06:37:28.630Z,15.35
2023-01-19T06:39:55.484Z,13.23
2023-01-19T06:42:22.257Z,12.10
2023-01-19T06:44:49.410Z,13.93
2023-01-19T06:47:16.680Z,14.05
2023-01-19T06:49:43.671Z,14.02
2023-01-19T06:52:11.581Z,13.88
2023-01-19T06:54:38.409Z,12.70
2023-01-19T06:57:05.277Z,14.55
2023-01-19T06:59:32.144Z,14.45
2023-01-19T07:01:59.260Z,14.90
2023-01-19T07:04:27.173Z,13.88
2023-01-19T07:06:53.991Z,17.20
2023-01-19T07:09:20.833Z,17.27
2023-01-19T07:11:48.456Z,20.35
2023-01-19T07:14:15.727Z,16.42
2023-01-19T07:16:42.781Z,16.67
2023-01-19T07:19:10.861Z,13.70
2023-01-19T07:21:37.726Z,15.77
2023-01-19T07:24:04.627Z,16.65
2023-01-19T07:26:31.483Z,14.73
2023-01-19T07:28:58.281Z,13.90
2023-01-19T07:31:25.351Z,13.13
2023-01-19T07:33:52.246Z,13.60
2023-01-19T07:36:19.023Z,17.48
2023-01-19T07:38:45.831Z,20.08
2023-01-19T07:41:12.651Z,14.75
2023-01-19T07:43:39.521Z,22.60
2023-01-19T07:46:08.248Z,21.00
2023-01-19T07:48:35.154Z,22.95
2023-01-19T07:51:05.955Z,17.42
2023-01-19T07:53:32.999Z,19.70
2023-01-19T07:55:59.849Z,19.98
2023-01-19T07:58:26.742Z,20.50
2023-01-19T08:00:53.744Z,20.90
2023-01-19T08:03:20.656Z,20.73
2023-01-19T08:05:50.684Z,22.70
2023-01-19T08:08:18.385Z,25.55
2023-01-19T08:10:45.301Z,22.15
2023-01-19T08:13:12.247Z,18.98
2023-01-19T08:15:39.074Z,22.80
2023-01-19T08:18:06.966Z,20.80
2023-01-19T08:20:33.724Z,20.02
2023-01-19T08:23:01.618Z,18.98
2023-01-19T08:25:36.379Z,16.77
2023-01-19T08:28:04.059Z,16.35
2023-01-19T08:30:30.968Z,15.82
2023-01-19T08:33:04.273Z,15.95
2023-01-19T08:35:31.921Z,19.30
2023-01-19T08:38:01.416Z,15.05
2023-01-19T08:40:34.785Z,16.35
2023-01-19T08:43:04.906Z,17.02
2023-01-19T08:45:31.734Z,18.80
2023-01-19T08:48:01.611Z,16.92
2023-01-19T08:50:31.945Z,19.10
2023-01-19T08:53:03.215Z,17.75
2023-01-19T08:55:30.380Z,17.02
2023-01-19T08:57:58.234Z,20.33
2023-01-19T09:00:25.566Z,19.33
2023-01-19T09:02:52.531Z,19.47
2023-01-19T09:05:19.560Z,24.58
2023-01-19T09:07:48.126Z,18.52
2023-01-19T09:10:15.636Z,19.48
2023-01-19T09:12:43.578Z,19.55
2023-01-19T09:15:10.989Z,19.60
2023-01-19T09:17:37.994Z,19.42
2023-01-19T09:20:06.090Z,20.90
2023-01-19T09:22:33.567Z,20.85
2023-01-19T09:25:00.463Z,22.25
2023-01-19T09:27:27.274Z,22.50
2023-01-19T09:29:54.187Z,21.10
2023-01-19T09:32:21.426Z,20.92
2023-01-19T09:34:48.347Z,21.30
2023-01-19T09:37:17.815Z,18.63
2023-01-19T09:39:44.610Z,19.45
2023-01-19T09:42:40.929Z,23.30
2023-01-19T09:45:12.216Z,21.95
2023-01-19T09:47:39.154Z,22.38
2023-01-19T09:50:18.046Z,19.52
2023-01-19T09:52:54.664Z,22.40
2023-01-19T09:55:25.555Z,24.80
2023-01-19T09:57:52.886Z,22.00
2023-01-19T10:00:19.865Z,25.40
2023-01-19T10:02:53.274Z,20.90
2023-01-19T10:05:26.294Z,21.83
2023-01-19T10:08:03.950Z,21.55
2023-01-19T10:10:33.754Z,22.17
2023-01-19T10:13:19.208Z,20.92
2023-01-19T10:15:46.637Z,23.85
2023-01-19T10:18:48.248Z,22.80
2023-01-19T10:21:16.791Z,21.98
2023-01-19T10:23:51.364Z,25.10
2023-01-19T10:26:25.331Z,23.05
2023-01-19T10:28:55.585Z,24.75
2023-01-19T10:31:23.733Z,24.13
2023-01-19T10:33:52.391Z,24.67
2023-01-19T10:36:38.778Z,25.25
2023-01-19T10:39:05.905Z,28.20
2023-01-19T10:41:52.407Z,29.63
2023-01-19T10:44:29.600Z,26.17
2023-01-19T10:46:57.629Z,27.40
2023-01-19T10:49:36.066Z,27.55
2023-01-19T10:52:03.029Z,29.02
2023-01-19T10:54:30.647Z,29.90
2023-01-19T10:57:08.359Z,29.73
2023-01-19T10:59:38.290Z,31.35
2023-01-19T11:02:21.721Z,28.05
2023-01-19T11:04:50.435Z,27.17
2023-01-19T11:07:23.956Z,27.35
2023-01-19T11:09:50.991Z,30.57
2023-01-19T11:12:22.308Z,30.63
2023-01-19T11:14:50.633Z,29.50
2023-01-19T11:17:25.340Z,32.00
2023-01-19T11:19:56.845Z,27.55
2023-01-19T11:22:27.064Z,27.83
2023-01-19T11:24:57.464Z,31.30
2023-01-19T11:27:24.322Z,30.02
2023-01-19T11:30:01.585Z,32.30
2023-01-19T11:32:28.418Z,30.10
2023-01-19T11:34:55.305Z,29.30
2023-01-19T11:37:29.729Z,31.35
2023-01-19T11:39:58.271Z,30.05
2023-01-19T11:42:25.311Z,31.35
2023-01-19T11:44:58.057Z,29.25
2023-01-19T11:47:33.746Z,28.83
2023-01-19T11:50:22.370Z,24.98
2023-01-19T11:53:01.564Z,25.13
2023-01-19T11:55:51.879Z,23.65
2023-01-19T11:58:19.234Z,24.10
2023-01-19T12:01:05.647Z,21.77
2023-01-19T12:04:05.062Z,21.92
2023-01-19T12:06:33.925Z,21.23
2023-01-19T12:09:06.209Z,19.27
2023-01-19T12:11:40.086Z,19.35
2023-01-19T12:14:11.955Z,20.97
2023-01-19T12:16:38.864Z,19.00
2023-01-19T12:19:10.964Z,18.30
2023-01-19T12:21:38.016Z,17.30
2023-01-19T12:24:23.881Z,19.60
2023-01-19T12:26:56.439Z,18.43
2023-01-19T12:29:34.223Z,18.35
2023-01-19T12:32:20.310Z,22.65
2023-01-19T12:34:51.971Z,22.15
2023-01-19T12:37:39.365Z,20.10
2023-01-19T12:40:26.806Z,19.83
2023-01-19T12:43:04.580Z,23.77
2023-01-19T12:45:39.873Z,27.50
2023-01-19T12:48:13.791Z,30.52
2023-01-19T12:50:40.599Z,28.77
2023-01-19T12:53:17.389Z,30.80
2023-01-19T12:55:46.978Z,26.27
2023-01-19T12:58:20.632Z,30.63
2023-01-19T13:00:48.301Z,27.90
2023-01-19T13:03:18.037Z,29.08
2023-01-19T13:05:44.746Z,28.80
2023-01-19T13:08:14.213Z,28.75
2023-01-19T13:10:59.900Z,25.95
2023-01-19T13:13:36.504Z,26.67
2023-01-19T13:16:22.477Z,26.63
2023-01-19T13:18:56.181Z,25.43
2023-01-19T13:21:32.923Z,23.73
2023-01-19T13:24:01.586Z,24.95
2023-01-19T13:26:31.099Z,25.08
2023-01-19T13:29:02.961Z,25.58
2023-01-19T13:31:34.735Z,26.33
2023-01-19T13:34:01.965Z,28.02
2023-01-19T13:36:32.529Z,23.15
2023-01-19T13:39:01.120Z,26.27
2023-01-19T13:41:36.448Z,26.30
2023-01-19T13:44:39.386Z,24.73
2023-01-19T13:47:08.025Z,24.10
2023-01-19T13:49:39.447Z,26.52
2023-01-19T13:52:25.871Z,28.92
2023-01-19T13:55:00.544Z,27.80
2023-01-19T13:57:29.846Z,27.27
2023-01-19T14:00:21.520Z,28.08
2023-01-19T14:03:02.790Z,26.63
2023-01-19T14:05:34.453Z,30.08
2023-01-19T14:08:03.938Z,27.73
2023-01-19T14:10:33.769Z,27.77
2023-01-19T14:13:01.888Z,27.23
2023-01-19T14:15:29.645Z,31.40
2023-01-19T14:18:17.894Z,30.48
2023-01-19T14:21:03.426Z,26.67
2023-01-19T14:23:44.887Z,26.47
2023-01-19T14:26:46.819Z,27.85
2023-01-19T14:29:39.444Z,29.63
2023-01-19T14:32:25.338Z,28.95
2023-01-19T14:35:12.520Z,30.40
2023-01-19T14:37:47.312Z,28.40
2023-01-19T14:40:21.755Z,25.50
2023-01-19T14:43:00.212Z,28.07
2023-01-19T14:45:27.207Z,26.70
2023-01-19T14:48:12.178Z,26.73
2023-01-19T14:50:42.800Z,27.08
2023-01-19T14:53:28.545Z,26.40
2023-01-19T14:56:05.123Z,27.70
2023-01-19T14:58:33.435Z,28.45
2023-01-19T15:01:00.539Z,27.30
2023-01-19T15:03:43.348Z,28.35
2023-01-19T15:06:14.535Z,30.80
2023-01-19T15:08:41.307Z,30.97
2023-01-19T15:11:18.413Z,29.10
2023-01-19T15:13:45.264Z,33.03
2023-01-19T15:16:12.215Z,33.05
2023-01-19T15:18:39.067Z,34.40
2023-01-19T15:21:06.056Z,34.10
2023-01-19T15:23:33.212Z,37.17
2023-01-19T15:26:00.979Z,36.53
2023-01-19T15:28:27.967Z,36.20
2023-01-19T15:30:54.840Z,36.83
2023-01-19T15:33:23.249Z,42.40
2023-01-19T15:35:50.361Z,41.35
2023-01-19T15:38:17.155Z,40.13
2023-01-19T15:40:43.974Z,42.22
2023-01-19T15:43:11.308Z,44.58
2023-01-19T15:45:38.722Z,42.10
2023-01-19T15:48:10.625Z,42.20
2023-01-19T15:50:42.156Z,43.38
2023-01-19T15:53:16.308Z,41.72
2023-01-19T15:55:43.468Z,47.20
2023-01-19T15:58:13.859Z,44.97
2023-01-19T16:00:40.991Z,49.25
2023-01-19T16:03:07.924Z,46.60
2023-01-19T16:05:42.826Z,45.40
2023-01-19T16:08:11.307Z,47.40
2023-01-19T16:10:38.209Z,45.37
2023-01-19T16:13:05.530Z,48.53
2023-01-19T16:15:34.973Z,52.13
2023-01-19T16:18:02.207Z,50.58
2023-01-19T16:20:29.164Z,47.42
2023-01-19T16:22:58.573Z,53.43
2023-01-19T16:25:33.032Z,48.63
2023-01-19T16:27:59.850Z,50.58
2023-01-19T16:30:26.722Z,49.42
2023-01-19T16:32:53.525Z,50.58
2023-01-19T16:35:20.469Z,49.77
2023-01-19T16:37:50.636Z,47.08
2023-01-19T16:40:17.567Z,51.28
2023-01-19T16:42:47.365Z,53.45
2023-01-19T16:45:14.169Z,50.38
2023-01-19T16:47:41.190Z,51.37
2023-01-19T16:50:11.450Z,53.88
2023-01-19T16:52:38.861Z,55.95
2023-01-19T16:55:09.438Z,53.15
2023-01-19T16:57:39.669Z,53.35
2023-01-19T17:00:07.431Z,52.88
2023-01-19T17:02:34.274Z,54.58
2023-01-19T17:05:01.087Z,59.85
2023-01-19T17:07:28.321Z,60.97
2023-01-19T17:09:55.401Z,65.43
2023-01-19T17:12:22.295Z,64.23
2023-01-19T17:14:49.169Z,66.30
2023-01-19T17:17:15.998Z,69.10
2023-01-19T17:19:42.942Z,77.07
2023-01-19T17:22:09.785Z,71.53
2023-01-19T17:24:36.663Z,68.73
2023-01-19T17:27:03.521Z,69.63
2023-01-19T17:29:30.384Z,76.00
2023-01-19T17:31:57.185Z,72.70
2023-01-19T17:34:23.978Z,78.57
2023-01-19T17:36:51.147Z,67.03
2023-01-19T17:39:18.659Z,73.28
2023-01-19T17:41:45.461Z,71.18
2023-01-19T17:44:12.285Z,71.25
2023-01-19T17:46:39.170Z,69.47
2023-01-19T17:49:07.199Z,70.03
2023-01-19T17:51:34.037Z,69.00
2023-01-19T17:54:00.948Z,72.93
2023-01-19T17:56:30.337Z,65.45
2023-01-19T17:58:57.678Z,70.20
2023-01-19T18:01:28.828Z,71.43
2023-01-19T18:03:56.111Z,66.10
2023-01-19T18:06:23.218Z,71.38
2023-01-19T18:08:50.123Z,66.20
2023-01-19T18:11:17.912Z,64.30
2023-01-19T18:13:45.385Z,67.17
2023-01-19T18:16:14.361Z,71.82
2023-01-19T18:18:41.420Z,72.18
2023-01-19T18:21:10.067Z,74.05
2023-01-19T18:23:36.946Z,71.05
2023-01-19T18:26:08.749Z,77.20
2023-01-19T18:28:35.619Z,69.68
2023-01-19T18:31:02.923Z,68.47
2023-01-19T18:33:31.429Z,66.90
2023-01-19T18:35:58.178Z,67.88
2023-01-19T18:38:25.023Z,68.30
2023-01-19T18:41:05.586Z,66.45
2023-01-19T18:43:32.412Z,63.08
2023-01-19T18:45:59.197Z,67.22
2023-01-19T18:48:26.121Z,63.63
2023-01-19T18:50:52.870Z,67.27
2023-01-19T18:53:19.809Z,67.70
2023-01-19T18:55:53.575Z,70.05
2023-01-19T18:58:20.468Z,67.93
2023-01-19T19:00:47.612Z,65.40
2023-01-19T19:03:14.519Z,69.47
2023-01-19T19:05:41.378Z,66.63
2023-01-19T19:08:08.217Z,71.25
2023-01-19T19:10:35.207Z,70.80
2023-01-19T19:13:02.050Z,68.40
2023-01-19T19:15:28.965Z,67.67
2023-01-19T19:17:55.704Z,67.40
2023-01-19T19:20:23.507Z,68.60
2023-01-19T19:22:50.544Z,65.18
2023-01-19T19:25:17.846Z,59.25
2023-01-19T19:27:47.785Z,67.43
2023-01-19T19:30:15.393Z,64.57
2023-01-19T19:32:42.351Z,63.38
2023-01-19T19:35:11.296Z,69.00
2023-01-19T19:37:38.258Z,67.82
2023-01-19T19:40:05.356Z,66.37
2023-01-19T19:42:32.220Z,70.32
2023-01-19T19:44:59.019Z,65.78
2023-01-19T19:47:26.377Z,72.05
2023-01-19T19:49:54.708Z,67.63
2023-01-19T19:52:21.474Z,64.23
2023-01-19T19:54:48.807Z,68.25
2023-01-19T19:57:15.621Z,66.32
2023-01-19T19:59:42.380Z,69.63
2023-01-19T20:02:09.947Z,67.75
2023-01-19T20:04:36.773Z,73.03
2023-01-19T20:07:03.628Z,79.18
2023-01-19T20:09:30.449Z,74.55
2023-01-19T20:11:57.254Z,75.05
2023-01-19T20:14:24.067Z,76.80
2023-01-19T20:16:50.957Z,77.13
2023-01-19T20:19:18.367Z,77.82
2023-01-19T20:21:45.238Z,81.72
2023-01-19T20:24:19.046Z,73.25
2023-01-19T20:26:50.501Z,67.68
2023-01-19T20:29:17.416Z,72.33
2023-01-19T20:31:52.716Z,74.47
2023-01-19T20:34:20.819Z,70.57
2023-01-19T20:36:49.916Z,68.25
2023-01-19T20:39:17.601Z,68.05
2023-01-19T20:41:45.171Z,65.47
2023-01-19T20:44:25.297Z,71.63
2023-01-19T20:46:52.452Z,66.82
2023-01-19T20:49:19.321Z,71.07
2023-01-19T20:51:47.066Z,77.95
2023-01-19T20:54:15.215Z,72.50
2023-01-19T20:56:42.020Z,71.38
2023-01-19T20:59:09.835Z,76.18
2023-01-19T21:01:36.996Z,76.03
2023-01-19T21:04:04.509Z,77.60
2023-01-19T21:06:31.414Z,74.87
2023-01-19T21:08:58.216Z,70.18
2023-01-19T21:11:25.255Z,73.07
2023-01-19T21:13:56.027Z,68.03
2023-01-19T21:16:24.521Z,80.95
2023-01-19T21:18:51.397Z,74.03
2023-01-19T21:21:29.765Z,76.72
2023-01-19T21:23:58.163Z,74.60
2023-01-19T21:26:25.134Z,78.68
2023-01-19T21:28:52.006Z,81.63
2023-01-19T21:31:18.863Z,75.53
2023-01-19T21:33:45.726Z,78.53
2023-01-19T21:36:12.616Z,87.00
2023-01-19T21:38:39.457Z,84.10
2023-01-19T21:41:11.839Z,81.47
2023-01-19T21:43:40.995Z,81.03
2023-01-19T21:46:12.841Z,78.45
2023-01-19T21:48:40.611Z,79.85
2023-01-19T21:51:07.493Z,74.93
2023-01-19T21:53:34.328Z,74.35
2023-01-19T21:56:01.186Z,73.10
2023-01-19T21:58:28.083Z,77.38
2023-01-19T22:01:01.971Z,74.22
2023-01-19T22:03:29.083Z,64.05
2023-01-19T22:05:58.931Z,67.75
2023-01-19T22:08:25.876Z,66.47
2023-01-19T22:10:52.656Z,68.65
2023-01-19T22:13:19.452Z,59.47
2023-01-19T22:15:46.195Z,59.60
2023-01-19T22:18:13.091Z,60.53
2023-01-19T22:20:39.986Z,60.20
2023-01-19T22:23:06.875Z,61.72
2023-01-19T22:25:33.941Z,63.70
2023-01-19T22:28:00.777Z,56.13
2023-01-19T22:30:27.766Z,53.40
2023-01-19T22:32:54.691Z,57.73
2023-01-19T22:35:21.468Z,55.55
2023-01-19T22:37:48.269Z,55.85
2023-01-19T22:40:15.303Z,53.92
2023-01-19T22:42:45.970Z,51.22
2023-01-19T22:45:13.358Z,43.63
2023-01-19T22:47:40.267Z,51.67
2023-01-19T22:50:08.127Z,45.97
2023-01-19T22:52:34.927Z,46.83
2023-01-19T22:55:01.759Z,41.75
2023-01-19T22:57:28.548Z,49.07
2023-01-19T22:59:55.309Z,45.38
2023-01-19T23:02:22.185Z,44.63
2023-01-19T23:04:49.026Z,39.97
2023-01-19T23:07:15.829Z,40.97
2023-01-19T23:09:42.655Z,39.83
2023-01-19T23:12:09.462Z,42.17
2023-01-19T23:14:36.392Z,42.38
2023-01-19T23:17:03.262Z,37.55
2023-01-19T23:19:30.056Z,37.10
2023-01-19T23:21:56.913Z,37.53
2023-01-19T23:24:23.690Z,33.20
2023-01-19T23:26:50.698Z,32.28
2023-01-19T23:29:18.068Z,31.02
2023-01-19T23:31:46.697Z,32.63
2023-01-19T23:34:14.011Z,32.53
2023-01-19T23:36:41.429Z,28.23
2023-01-19T23:39:16.577Z,32.85
2023-01-19T23:41:43.462Z,28.42
2023-01-19T23:44:10.315Z,29.38
2023-01-19T23:46:37.309Z,29.50
2023-01-19T23:49:04.367Z,29.80
2023-01-19T23:51:31.756Z,34.03
2023-01-19T23:53:58.925Z,27.83
2023-01-19T23:56:27.468Z,27.52
2023-01-19T23:58:58.666Z,26.63
